sensor_id;sensor_type;location;lat;lon;timestamp;P1;durP1;ratioP1;P2;durP2;ratioP2
48743;SDS011;34538;48.836;9.174;2023-12-22T00:01:25;7.13;;;1.10;;
48743;SDS011;34538;48.836;9.174;2023-12-22T00:03:52;4.82;;;1.00;;
48743;SDS011;34538;48.836;9.174;2023-12-22T00:06:19;3.88;;;0.80;;
48743;SDS011;34538;48.836;9.174;2023-12-22T00:08:46;3.83;;;0.70;;
48743;SDS011;34538;48.836;9.174;2023-12-22T00:11:14;4.80;;;0.93;;
48743;SDS011;34538;48.836;9.174;2023-12-22T00:13:41;4.22;;;0.90;;
48743;SDS011;34538;48.836;9.174;2023-12-22T00:16:08;3.88;;;1.35;;
48743;SDS011;34538;48.836;9.174;2023-12-22T00:18:36;4.47;;;1.40;;
48743;SDS011;34538;48.836;9.174;2023-12-22T00:21:03;5.65;;;1.10;;
48743;SDS011;34538;48.836;9.174;2023-12-22T00:23:30;3.35;;;1.40;;
48743;SDS011;34538;48.836;9.174;2023-12-22T00:26:01;7.07;;;1.77;;
48743;SDS011;34538;48.836;9.174;2023-12-22T00:28:29;5.00;;;1.30;;
48743;SDS011;34538;48.836;9.174;2023-12-22T00:30:57;4.72;;;1.20;;
48743;SDS011;34538;48.836;9.174;2023-12-22T00:33:24;4.40;;;1.23;;
48743;SDS011;34538;48.836;9.174;2023-12-22T00:35:51;2.40;;;1.08;;
48743;SDS011;34538;48.836;9.174;2023-12-22T00:38:18;5.30;;;0.98;;
48743;SDS011;34538;48.836;9.174;2023-12-22T00:40:45;2.15;;;0.80;;
48743;SDS011;34538;48.836;9.174;2023-12-22T00:43:11;3.15;;;1.00;;
48743;SDS011;34538;48.836;9.174;2023-12-22T00:45:40;4.57;;;0.98;;
48743;SDS011;34538;48.836;9.174;2023-12-22T00:48:07;2.08;;;0.80;;
48743;SDS011;34538;48.836;9.174;2023-12-22T00:50:34;3.80;;;1.00;;
48743;SDS011;34538;48.836;9.174;2023-12-22T00:53:00;4.25;;;1.95;;
48743;SDS011;34538;48.836;9.174;2023-12-22T00:55:28;2.72;;;0.88;;
48743;SDS011;34538;48.836;9.174;2023-12-22T00:57:54;4.35;;;1.65;;
48743;SDS011;34538;48.836;9.174;2023-12-22T01:00:21;6.20;;;0.95;;
48743;SDS011;34538;48.836;9.174;2023-12-22T01:02:50;4.35;;;1.35;;
48743;SDS011;34538;48.836;9.174;2023-12-22T01:05:17;3.92;;;1.40;;
48743;SDS011;34538;48.836;9.174;2023-12-22T01:07:44;6.13;;;1.77;;
48743;SDS011;34538;48.836;9.174;2023-12-22T01:10:11;5.10;;;1.10;;
48743;SDS011;34538;48.836;9.174;2023-12-22T01:12:38;4.78;;;1.20;;
48743;SDS011;34538;48.836;9.174;2023-12-22T01:15:05;3.22;;;1.15;;
48743;SDS011;34538;48.836;9.174;2023-12-22T01:17:33;4.97;;;1.05;;
48743;SDS011;34538;48.836;9.174;2023-12-22T01:20:02;5.05;;;1.20;;
48743;SDS011;34538;48.836;9.174;2023-12-22T01:22:29;8.18;;;1.23;;
48743;SDS011;34538;48.836;9.174;2023-12-22T01:24:58;8.73;;;1.73;;
48743;SDS011;34538;48.836;9.174;2023-12-22T01:27:26;4.47;;;1.13;;
48743;SDS011;34538;48.836;9.174;2023-12-22T01:29:53;4.22;;;1.30;;
48743;SDS011;34538;48.836;9.174;2023-12-22T01:32:20;5.13;;;1.10;;
48743;SDS011;34538;48.836;9.174;2023-12-22T01:34:47;3.05;;;0.88;;
48743;SDS011;34538;48.836;9.174;2023-12-22T01:37:15;4.47;;;0.93;;
48743;SDS011;34538;48.836;9.174;2023-12-22T01:39:42;2.70;;;1.50;;
48743;SDS011;34538;48.836;9.174;2023-12-22T01:42:09;5.50;;;1.20;;
48743;SDS011;34538;48.836;9.174;2023-12-22T01:44:36;2.55;;;1.08;;
48743;SDS011;34538;48.836;9.174;2023-12-22T01:47:04;3.35;;;1.25;;
48743;SDS011;34538;48.836;9.174;2023-12-22T01:49:31;8.82;;;1.30;;
48743;SDS011;34538;48.836;9.174;2023-12-22T01:51:58;6.45;;;0.95;;
48743;SDS011;34538;48.836;9.174;2023-12-22T01:54:27;4.72;;;0.75;;
48743;SDS011;34538;48.836;9.174;2023-12-22T01:56:54;3.25;;;0.50;;
48743;SDS011;34538;48.836;9.174;2023-12-22T01:59:21;4.15;;;1.15;;
48743;SDS011;34538;48.836;9.174;2023-12-22T02:01:48;4.00;;;0.70;;
48743;SDS011;34538;48.836;9.174;2023-12-22T02:04:15;2.30;;;0.50;;
48743;SDS011;34538;48.836;9.174;2023-12-22T02:06:42;3.25;;;0.60;;
48743;SDS011;34538;48.836;9.174;2023-12-22T02:09:10;3.42;;;1.02;;
48743;SDS011;34538;48.836;9.174;2023-12-22T02:11:38;2.55;;;0.50;;
48743;SDS011;34538;48.836;9.174;2023-12-22T02:14:06;1.67;;;0.40;;
48743;SDS011;34538;48.836;9.174;2023-12-22T02:16:36;1.40;;;0.43;;
48743;SDS011;34538;48.836;9.174;2023-12-22T02:19:15;2.15;;;0.50;;
48743;SDS011;34538;48.836;9.174;2023-12-22T02:22:01;1.52;;;0.40;;
48743;SDS011;34538;48.836;9.174;2023-12-22T02:24:31;2.78;;;0.55;;
48743;SDS011;34538;48.836;9.174;2023-12-22T02:27:00;1.38;;;0.50;;
48743;SDS011;34538;48.836;9.174;2023-12-22T02:29:32;1.40;;;0.60;;
48743;SDS011;34538;48.836;9.174;2023-12-22T02:32:05;1.95;;;0.47;;
48743;SDS011;34538;48.836;9.174;2023-12-22T02:34:36;1.90;;;1.00;;
48743;SDS011;34538;48.836;9.174;2023-12-22T02:37:07;1.60;;;0.40;;
48743;SDS011;34538;48.836;9.174;2023-12-22T02:39:36;2.67;;;0.60;;
48743;SDS011;34538;48.836;9.174;2023-12-22T02:42:03;3.38;;;0.73;;
48743;SDS011;34538;48.836;9.174;2023-12-22T02:44:31;3.55;;;0.88;;
48743;SDS011;34538;48.836;9.174;2023-12-22T02:46:59;2.50;;;0.55;;
48743;SDS011;34538;48.836;9.174;2023-12-22T02:49:26;2.17;;;0.70;;
48743;SDS011;34538;48.836;9.174;2023-12-22T02:51:53;3.65;;;0.60;;
48743;SDS011;34538;48.836;9.174;2023-12-22T02:54:20;3.30;;;0.73;;
48743;SDS011;34538;48.836;9.174;2023-12-22T02:56:48;3.75;;;0.90;;
48743;SDS011;34538;48.836;9.174;2023-12-22T02:59:15;3.58;;;0.82;;
48743;SDS011;34538;48.836;9.174;2023-12-22T03:01:42;5.43;;;0.85;;
48743;SDS011;34538;48.836;9.174;2023-12-22T03:04:09;2.33;;;1.05;;
48743;SDS011;34538;48.836;9.174;2023-12-22T03:06:36;2.70;;;0.77;;
48743;SDS011;34538;48.836;9.174;2023-12-22T03:09:03;2.72;;;0.90;;
48743;SDS011;34538;48.836;9.174;2023-12-22T03:11:31;3.60;;;0.63;;
48743;SDS011;34538;48.836;9.174;2023-12-22T03:13:59;2.03;;;0.80;;
48743;SDS011;34538;48.836;9.174;2023-12-22T03:16:27;3.22;;;0.88;;
48743;SDS011;34538;48.836;9.174;2023-12-22T03:18:53;3.00;;;0.80;;
48743;SDS011;34538;48.836;9.174;2023-12-22T03:21:20;5.65;;;0.95;;
48743;SDS011;34538;48.836;9.174;2023-12-22T03:23:47;4.40;;;1.08;;
48743;SDS011;34538;48.836;9.174;2023-12-22T03:26:14;4.13;;;0.70;;
48743;SDS011;34538;48.836;9.174;2023-12-22T03:28:41;3.05;;;0.90;;
48743;SDS011;34538;48.836;9.174;2023-12-22T03:31:09;7.32;;;1.67;;
48743;SDS011;34538;48.836;9.174;2023-12-22T03:33:36;4.25;;;0.70;;
48743;SDS011;34538;48.836;9.174;2023-12-22T03:36:03;4.32;;;1.25;;
48743;SDS011;34538;48.836;9.174;2023-12-22T03:38:30;2.00;;;0.80;;
48743;SDS011;34538;48.836;9.174;2023-12-22T03:40:58;3.80;;;1.55;;
48743;SDS011;34538;48.836;9.174;2023-12-22T03:43:25;3.30;;;0.73;;
48743;SDS011;34538;48.836;9.174;2023-12-22T03:45:52;4.53;;;1.20;;
48743;SDS011;34538;48.836;9.174;2023-12-22T03:48:20;2.38;;;0.60;;
48743;SDS011;34538;48.836;9.174;2023-12-22T03:50:47;3.33;;;0.93;;
48743;SDS011;34538;48.836;9.174;2023-12-22T03:53:14;2.33;;;0.60;;
48743;SDS011;34538;48.836;9.174;2023-12-22T03:55:41;3.40;;;0.60;;
48743;SDS011;34538;48.836;9.174;2023-12-22T03:58:09;4.78;;;0.85;;
48743;SDS011;34538;48.836;9.174;2023-12-22T04:00:35;4.15;;;0.90;;
48743;SDS011;34538;48.836;9.174;2023-12-22T04:03:03;4.18;;;1.35;;
48743;SDS011;34538;48.836;9.174;2023-12-22T04:05:32;2.10;;;0.70;;
48743;SDS011;34538;48.836;9.174;2023-12-22T04:07:59;6.35;;;1.10;;
48743;SDS011;34538;48.836;9.174;2023-12-22T04:10:26;3.28;;;0.68;;
48743;SDS011;34538;48.836;9.174;2023-12-22T04:12:53;3.47;;;0.73;;
48743;SDS011;34538;48.836;9.174;2023-12-22T04:15:20;5.35;;;1.30;;
48743;SDS011;34538;48.836;9.174;2023-12-22T04:17:47;5.28;;;1.10;;
48743;SDS011;34538;48.836;9.174;2023-12-22T04:20:15;6.97;;;1.10;;
48743;SDS011;34538;48.836;9.174;2023-12-22T04:22:43;5.05;;;1.23;;
48743;SDS011;34538;48.836;9.174;2023-12-22T04:25:10;4.07;;;1.10;;
48743;SDS011;34538;48.836;9.174;2023-12-22T04:27:37;3.05;;;1.23;;
48743;SDS011;34538;48.836;9.174;2023-12-22T04:30:05;4.20;;;1.05;;
48743;SDS011;34538;48.836;9.174;2023-12-22T04:32:32;6.07;;;1.00;;
48743;SDS011;34538;48.836;9.174;2023-12-22T04:34:59;7.03;;;1.02;;
48743;SDS011;34538;48.836;9.174;2023-12-22T04:37:26;2.75;;;1.17;;
48743;SDS011;34538;48.836;9.174;2023-12-22T04:39:54;3.03;;;0.80;;
48743;SDS011;34538;48.836;9.174;2023-12-22T04:42:21;3.70;;;1.27;;
48743;SDS011;34538;48.836;9.174;2023-12-22T04:44:50;10.10;;;1.13;;
48743;SDS011;34538;48.836;9.174;2023-12-22T04:47:17;3.55;;;1.25;;
48743;SDS011;34538;48.836;9.174;2023-12-22T04:49:45;5.28;;;1.52;;
48743;SDS011;34538;48.836;9.174;2023-12-22T04:52:12;5.50;;;0.90;;
48743;SDS011;34538;48.836;9.174;2023-12-22T04:54:39;2.45;;;0.77;;
48743;SDS011;34538;48.836;9.174;2023-12-22T04:57:08;4.75;;;0.80;;
48743;SDS011;34538;48.836;9.174;2023-12-22T04:59:34;1.95;;;0.60;;
48743;SDS011;34538;48.836;9.174;2023-12-22T05:02:01;6.20;;;0.85;;
48743;SDS011;34538;48.836;9.174;2023-12-22T05:04:29;6.28;;;1.00;;
48743;SDS011;34538;48.836;9.174;2023-12-22T05:06:56;2.45;;;0.70;;
48743;SDS011;34538;48.836;9.174;2023-12-22T05:09:23;3.92;;;1.00;;
48743;SDS011;34538;48.836;9.174;2023-12-22T05:11:50;1.13;;;0.60;;
48743;SDS011;34538;48.836;9.174;2023-12-22T05:14:19;4.53;;;0.98;;
48743;SDS011;34538;48.836;9.174;2023-12-22T05:16:46;4.82;;;0.90;;
48743;SDS011;34538;48.836;9.174;2023-12-22T05:19:13;6.28;;;1.40;;
48743;SDS011;34538;48.836;9.174;2023-12-22T05:21:40;4.40;;;1.23;;
48743;SDS011;34538;48.836;9.174;2023-12-22T05:24:07;5.10;;;1.38;;
48743;SDS011;34538;48.836;9.174;2023-12-22T05:26:34;5.07;;;1.40;;
48743;SDS011;34538;48.836;9.174;2023-12-22T05:29:01;4.45;;;1.08;;
48743;SDS011;34538;48.836;9.174;2023-12-22T05:31:29;2.88;;;1.17;;
48743;SDS011;34538;48.836;9.174;2023-12-22T05:33:57;6.20;;;1.42;;
48743;SDS011;34538;48.836;9.174;2023-12-22T05:36:25;5.35;;;1.02;;
48743;SDS011;34538;48.836;9.174;2023-12-22T05:38:52;6.10;;;1.15;;
48743;SDS011;34538;48.836;9.174;2023-12-22T05:41:19;5.00;;;1.15;;
48743;SDS011;34538;48.836;9.174;2023-12-22T05:43:45;8.73;;;1.85;;
48743;SDS011;34538;48.836;9.174;2023-12-22T05:46:12;5.93;;;1.77;;
48743;SDS011;34538;48.836;9.174;2023-12-22T05:48:40;8.13;;;1.38;;
48743;SDS011;34538;48.836;9.174;2023-12-22T05:51:07;7.30;;;1.42;;
48743;SDS011;34538;48.836;9.174;2023-12-22T05:53:38;7.90;;;1.50;;
48743;SDS011;34538;48.836;9.174;2023-12-22T05:56:16;6.40;;;2.13;;
48743;SDS011;34538;48.836;9.174;2023-12-22T05:58:44;3.60;;;1.35;;
48743;SDS011;34538;48.836;9.174;2023-12-22T06:01:13;6.68;;;1.30;;
48743;SDS011;34538;48.836;9.174;2023-12-22T06:03:43;7.82;;;1.88;;
48743;SDS011;34538;48.836;9.174;2023-12-22T06:06:10;5.00;;;1.45;;
48743;SDS011;34538;48.836;9.174;2023-12-22T06:08:37;4.78;;;1.08;;
48743;SDS011;34538;48.836;9.174;2023-12-22T06:11:04;6.00;;;1.30;;
48743;SDS011;34538;48.836;9.174;2023-12-22T06:13:31;5.40;;;1.40;;
48743;SDS011;34538;48.836;9.174;2023-12-22T06:15:58;5.53;;;1.48;;
48743;SDS011;34538;48.836;9.174;2023-12-22T06:18:25;7.38;;;1.48;;
48743;SDS011;34538;48.836;9.174;2023-12-22T06:20:53;5.72;;;1.38;;
48743;SDS011;34538;48.836;9.174;2023-12-22T06:23:21;13.93;;;2.45;;
48743;SDS011;34538;48.836;9.174;2023-12-22T06:25:47;9.27;;;1.38;;
48743;SDS011;34538;48.836;9.174;2023-12-22T06:28:14;10.70;;;1.85;;
48743;SDS011;34538;48.836;9.174;2023-12-22T06:30:43;5.22;;;1.77;;
48743;SDS011;34538;48.836;9.174;2023-12-22T06:33:12;6.75;;;1.42;;
48743;SDS011;34538;48.836;9.174;2023-12-22T06:35:39;8.00;;;1.50;;
48743;SDS011;34538;48.836;9.174;2023-12-22T06:38:08;9.23;;;1.42;;
48743;SDS011;34538;48.836;9.174;2023-12-22T06:40:36;8.57;;;1.77;;
48743;SDS011;34538;48.836;9.174;2023-12-22T06:43:03;7.50;;;1.45;;
48743;SDS011;34538;48.836;9.174;2023-12-22T06:45:31;10.18;;;1.83;;
48743;SDS011;34538;48.836;9.174;2023-12-22T06:47:58;6.18;;;1.45;;
48743;SDS011;34538;48.836;9.174;2023-12-22T06:50:25;4.88;;;1.60;;
48743;SDS011;34538;48.836;9.174;2023-12-22T06:52:52;5.35;;;1.35;;
48743;SDS011;34538;48.836;9.174;2023-12-22T06:55:20;4.50;;;1.33;;
48743;SDS011;34538;48.836;9.174;2023-12-22T06:57:47;4.15;;;1.00;;
48743;SDS011;34538;48.836;9.174;2023-12-22T07:00:14;6.18;;;1.58;;
48743;SDS011;34538;48.836;9.174;2023-12-22T07:02:42;7.40;;;1.48;;
48743;SDS011;34538;48.836;9.174;2023-12-22T07:07:59;7.85;;;1.63;;
48743;SDS011;34538;48.836;9.174;2023-12-22T07:10:27;5.70;;;2.78;;
48743;SDS011;34538;48.836;9.174;2023-12-22T07:12:54;3.70;;;1.42;;
48743;SDS011;34538;48.836;9.174;2023-12-22T07:15:21;7.90;;;1.10;;
48743;SDS011;34538;48.836;9.174;2023-12-22T07:17:48;7.03;;;1.67;;
48743;SDS011;34538;48.836;9.174;2023-12-22T07:20:14;7.75;;;1.55;;
48743;SDS011;34538;48.836;9.174;2023-12-22T07:22:44;5.05;;;1.38;;
48743;SDS011;34538;48.836;9.174;2023-12-22T07:25:10;5.90;;;1.33;;
48743;SDS011;34538;48.836;9.174;2023-12-22T07:27:39;3.33;;;1.15;;
48743;SDS011;34538;48.836;9.174;2023-12-22T07:30:07;6.68;;;1.20;;
48743;SDS011;34538;48.836;9.174;2023-12-22T07:32:37;6.47;;;1.43;;
48743;SDS011;34538;48.836;9.174;2023-12-22T07:35:04;4.28;;;1.00;;
48743;SDS011;34538;48.836;9.174;2023-12-22T07:37:34;3.88;;;1.67;;
48743;SDS011;34538;48.836;9.174;2023-12-22T07:40:02;6.60;;;1.40;;
48743;SDS011;34538;48.836;9.174;2023-12-22T07:42:29;3.92;;;1.23;;
48743;SDS011;34538;48.836;9.174;2023-12-22T07:44:57;5.43;;;1.38;;
48743;SDS011;34538;48.836;9.174;2023-12-22T07:47:24;6.85;;;1.15;;
48743;SDS011;34538;48.836;9.174;2023-12-22T07:49:51;2.15;;;0.70;;
48743;SDS011;34538;48.836;9.174;2023-12-22T07:52:18;5.47;;;1.08;;
48743;SDS011;34538;48.836;9.174;2023-12-22T07:54:45;4.43;;;1.02;;
48743;SDS011;34538;48.836;9.174;2023-12-22T07:57:12;5.20;;;1.33;;
48743;SDS011;34538;48.836;9.174;2023-12-22T07:59:40;10.35;;;1.42;;
48743;SDS011;34538;48.836;9.174;2023-12-22T08:02:08;7.28;;;1.55;;
48743;SDS011;34538;48.836;9.174;2023-12-22T08:04:35;6.93;;;1.60;;
48743;SDS011;34538;48.836;9.174;2023-12-22T08:07:02;3.80;;;0.90;;
48743;SDS011;34538;48.836;9.174;2023-12-22T08:09:29;3.60;;;1.20;;
48743;SDS011;34538;48.836;9.174;2023-12-22T08:11:58;7.25;;;1.33;;
48743;SDS011;34538;48.836;9.174;2023-12-22T08:14:24;5.47;;;1.08;;
48743;SDS011;34538;48.836;9.174;2023-12-22T08:16:51;2.70;;;1.33;;
48743;SDS011;34538;48.836;9.174;2023-12-22T08:19:20;7.05;;;1.30;;
48743;SDS011;34538;48.836;9.174;2023-12-22T08:21:46;10.82;;;1.42;;
48743;SDS011;34538;48.836;9.174;2023-12-22T08:24:14;6.50;;;1.40;;
48743;SDS011;34538;48.836;9.174;2023-12-22T08:26:41;7.78;;;1.38;;
48743;SDS011;34538;48.836;9.174;2023-12-22T08:29:08;4.68;;;1.20;;
48743;SDS011;34538;48.836;9.174;2023-12-22T08:31:35;6.82;;;1.48;;
48743;SDS011;34538;48.836;9.174;2023-12-22T08:34:03;10.27;;;1.88;;
48743;SDS011;34538;48.836;9.174;2023-12-22T08:36:32;7.43;;;1.55;;
48743;SDS011;34538;48.836;9.174;2023-12-22T08:38:59;5.30;;;1.73;;
48743;SDS011;34538;48.836;9.174;2023-12-22T08:41:26;8.77;;;2.33;;
48743;SDS011;34538;48.836;9.174;2023-12-22T08:43:54;9.07;;;2.50;;
48743;SDS011;34538;48.836;9.174;2023-12-22T08:46:21;11.15;;;2.45;;
48743;SDS011;34538;48.836;9.174;2023-12-22T08:48:50;7.93;;;2.50;;
48743;SDS011;34538;48.836;9.174;2023-12-22T08:51:17;9.50;;;2.08;;
48743;SDS011;34538;48.836;9.174;2023-12-22T08:53:46;11.48;;;2.78;;
48743;SDS011;34538;48.836;9.174;2023-12-22T08:56:13;13.35;;;2.78;;
48743;SDS011;34538;48.836;9.174;2023-12-22T08:58:40;7.90;;;2.10;;
48743;SDS011;34538;48.836;9.174;2023-12-22T09:01:07;9.38;;;1.85;;
48743;SDS011;34538;48.836;9.174;2023-12-22T09:03:40;8.60;;;2.20;;
48743;SDS011;34538;48.836;9.174;2023-12-22T09:08:40;15.38;;;2.20;;
48743;SDS011;34538;48.836;9.174;2023-12-22T09:11:10;9.50;;;2.47;;
48743;SDS011;34538;48.836;9.174;2023-12-22T09:13:38;14.05;;;2.30;;
48743;SDS011;34538;48.836;9.174;2023-12-22T09:16:05;10.15;;;2.58;;
48743;SDS011;34538;48.836;9.174;2023-12-22T09:18:32;10.18;;;2.20;;
48743;SDS011;34538;48.836;9.174;2023-12-22T09:20:59;10.63;;;2.03;;
48743;SDS011;34538;48.836;9.174;2023-12-22T09:23:26;7.47;;;1.95;;
48743;SDS011;34538;48.836;9.174;2023-12-22T09:25:53;9.43;;;2.08;;
48743;SDS011;34538;48.836;9.174;2023-12-22T09:28:21;14.95;;;2.42;;
48743;SDS011;34538;48.836;9.174;2023-12-22T09:30:48;10.52;;;1.85;;
48743;SDS011;34538;48.836;9.174;2023-12-22T09:33:15;8.10;;;2.35;;
48743;SDS011;34538;48.836;9.174;2023-12-22T09:35:42;8.70;;;1.90;;
48743;SDS011;34538;48.836;9.174;2023-12-22T09:38:09;11.70;;;2.88;;
48743;SDS011;34538;48.836;9.174;2023-12-22T09:40:37;11.30;;;1.92;;
48743;SDS011;34538;48.836;9.174;2023-12-22T09:43:05;7.88;;;2.20;;
48743;SDS011;34538;48.836;9.174;2023-12-22T09:45:34;11.18;;;2.78;;
48743;SDS011;34538;48.836;9.174;2023-12-22T09:48:02;9.60;;;2.78;;
48743;SDS011;34538;48.836;9.174;2023-12-22T09:50:31;14.43;;;3.85;;
48743;SDS011;34538;48.836;9.174;2023-12-22T09:53:00;10.82;;;2.40;;
48743;SDS011;34538;48.836;9.174;2023-12-22T09:55:28;6.57;;;2.25;;
48743;SDS011;34538;48.836;9.174;2023-12-22T09:57:57;12.98;;;2.85;;
48743;SDS011;34538;48.836;9.174;2023-12-22T10:00:25;9.80;;;1.80;;
48743;SDS011;34538;48.836;9.174;2023-12-22T10:02:55;15.52;;;2.15;;
48743;SDS011;34538;48.836;9.174;2023-12-22T10:05:22;5.93;;;1.85;;
48743;SDS011;34538;48.836;9.174;2023-12-22T10:07:49;11.55;;;2.38;;
48743;SDS011;34538;48.836;9.174;2023-12-22T10:10:16;5.32;;;1.45;;
48743;SDS011;34538;48.836;9.174;2023-12-22T10:12:44;12.18;;;2.25;;
48743;SDS011;34538;48.836;9.174;2023-12-22T10:15:12;9.73;;;2.00;;
48743;SDS011;34538;48.836;9.174;2023-12-22T10:17:40;10.25;;;2.08;;
48743;SDS011;34538;48.836;9.174;2023-12-22T10:20:09;8.45;;;1.63;;
48743;SDS011;34538;48.836;9.174;2023-12-22T10:22:37;11.82;;;2.17;;
48743;SDS011;34538;48.836;9.174;2023-12-22T10:25:04;7.72;;;2.10;;
48743;SDS011;34538;48.836;9.174;2023-12-22T10:27:32;5.93;;;1.30;;
48743;SDS011;34538;48.836;9.174;2023-12-22T10:29:59;9.15;;;2.70;;
48743;SDS011;34538;48.836;9.174;2023-12-22T10:32:26;14.73;;;2.47;;
48743;SDS011;34538;48.836;9.174;2023-12-22T10:34:53;9.68;;;1.67;;
48743;SDS011;34538;48.836;9.174;2023-12-22T10:37:21;9.40;;;2.05;;
48743;SDS011;34538;48.836;9.174;2023-12-22T10:39:51;10.60;;;2.03;;
48743;SDS011;34538;48.836;9.174;2023-12-22T10:42:18;14.90;;;2.50;;
48743;SDS011;34538;48.836;9.174;2023-12-22T10:44:46;6.63;;;1.52;;
48743;SDS011;34538;48.836;9.174;2023-12-22T10:47:13;8.68;;;1.95;;
48743;SDS011;34538;48.836;9.174;2023-12-22T10:49:40;7.93;;;1.73;;
48743;SDS011;34538;48.836;9.174;2023-12-22T10:52:10;6.53;;;1.55;;
48743;SDS011;34538;48.836;9.174;2023-12-22T10:54:43;8.20;;;1.20;;
48743;SDS011;34538;48.836;9.174;2023-12-22T10:57:10;5.75;;;1.58;;
48743;SDS011;34538;48.836;9.174;2023-12-22T10:59:38;9.27;;;2.03;;
48743;SDS011;34538;48.836;9.174;2023-12-22T11:02:10;10.35;;;2.00;;
48743;SDS011;34538;48.836;9.174;2023-12-22T11:04:42;6.97;;;1.45;;
48743;SDS011;34538;48.836;9.174;2023-12-22T11:07:15;6.53;;;1.10;;
48743;SDS011;34538;48.836;9.174;2023-12-22T11:09:45;3.10;;;1.17;;
48743;SDS011;34538;48.836;9.174;2023-12-22T11:12:15;5.25;;;1.13;;
48743;SDS011;34538;48.836;9.174;2023-12-22T11:14:43;6.20;;;1.65;;
48743;SDS011;34538;48.836;9.174;2023-12-22T11:17:15;4.75;;;1.65;;
48743;SDS011;34538;48.836;9.174;2023-12-22T11:19:45;4.15;;;1.05;;
48743;SDS011;34538;48.836;9.174;2023-12-22T11:22:14;3.50;;;1.08;;
48743;SDS011;34538;48.836;9.174;2023-12-22T11:24:42;4.47;;;1.17;;
48743;SDS011;34538;48.836;9.174;2023-12-22T11:27:11;5.05;;;1.38;;
48743;SDS011;34538;48.836;9.174;2023-12-22T11:29:39;3.42;;;0.90;;
48743;SDS011;34538;48.836;9.174;2023-12-22T11:32:07;6.35;;;1.35;;
48743;SDS011;34538;48.836;9.174;2023-12-22T11:34:35;5.15;;;1.10;;
48743;SDS011;34538;48.836;9.174;2023-12-22T11:37:04;5.40;;;1.08;;
48743;SDS011;34538;48.836;9.174;2023-12-22T11:39:33;3.53;;;1.15;;
48743;SDS011;34538;48.836;9.174;2023-12-22T11:42:00;2.80;;;1.00;;
48743;SDS011;34538;48.836;9.174;2023-12-22T11:44:31;3.13;;;0.98;;
48743;SDS011;34538;48.836;9.174;2023-12-22T11:47:05;5.63;;;1.02;;
48743;SDS011;34538;48.836;9.174;2023-12-22T11:49:33;6.32;;;1.67;;
48743;SDS011;34538;48.836;9.174;2023-12-22T11:52:09;3.05;;;1.00;;
48743;SDS011;34538;48.836;9.174;2023-12-22T11:54:46;2.53;;;1.00;;
48743;SDS011;34538;48.836;9.174;2023-12-22T11:57:30;4.72;;;0.90;;
48743;SDS011;34538;48.836;9.174;2023-12-22T12:00:01;3.15;;;0.80;;
48743;SDS011;34538;48.836;9.174;2023-12-22T12:02:37;4.30;;;1.02;;
48743;SDS011;34538;48.836;9.174;2023-12-22T12:05:06;1.05;;;0.50;;
48743;SDS011;34538;48.836;9.174;2023-12-22T12:07:41;1.48;;;0.47;;
48743;SDS011;34538;48.836;9.174;2023-12-22T12:10:10;2.83;;;0.80;;
48743;SDS011;34538;48.836;9.174;2023-12-22T12:12:39;1.98;;;0.60;;
48743;SDS011;34538;48.836;9.174;2023-12-22T12:15:09;3.55;;;0.73;;
48743;SDS011;34538;48.836;9.174;2023-12-22T12:17:39;3.17;;;1.13;;
48743;SDS011;34538;48.836;9.174;2023-12-22T12:20:08;1.92;;;0.90;;
48743;SDS011;34538;48.836;9.174;2023-12-22T12:22:36;2.13;;;0.60;;
48743;SDS011;34538;48.836;9.174;2023-12-22T12:25:08;1.95;;;0.60;;
48743;SDS011;34538;48.836;9.174;2023-12-22T12:27:36;2.22;;;0.57;;
48743;SDS011;34538;48.836;9.174;2023-12-22T12:30:13;3.20;;;0.70;;
48743;SDS011;34538;48.836;9.174;2023-12-22T12:32:44;1.90;;;0.82;;
48743;SDS011;34538;48.836;9.174;2023-12-22T12:35:11;2.85;;;0.60;;
48743;SDS011;34538;48.836;9.174;2023-12-22T12:37:39;1.98;;;0.50;;
48743;SDS011;34538;48.836;9.174;2023-12-22T12:40:10;1.90;;;0.50;;
48743;SDS011;34538;48.836;9.174;2023-12-22T12:42:37;1.75;;;0.73;;
48743;SDS011;34538;48.836;9.174;2023-12-22T12:45:05;1.33;;;0.47;;
48743;SDS011;34538;48.836;9.174;2023-12-22T12:47:34;3.17;;;0.73;;
48743;SDS011;34538;48.836;9.174;2023-12-22T12:50:02;0.63;;;0.43;;
48743;SDS011;34538;48.836;9.174;2023-12-22T12:52:29;1.00;;;0.50;;
48743;SDS011;34538;48.836;9.174;2023-12-22T12:54:56;0.77;;;0.45;;
48743;SDS011;34538;48.836;9.174;2023-12-22T12:57:26;1.42;;;0.30;;
48743;SDS011;34538;48.836;9.174;2023-12-22T12:59:53;1.27;;;0.40;;
48743;SDS011;34538;48.836;9.174;2023-12-22T13:02:20;0.22;;;0.22;;
48743;SDS011;34538;48.836;9.174;2023-12-22T13:04:49;1.15;;;0.50;;
48743;SDS011;34538;48.836;9.174;2023-12-22T13:07:25;0.65;;;0.40;;
48743;SDS011;34538;48.836;9.174;2023-12-22T13:09:52;1.17;;;0.40;;
48743;SDS011;34538;48.836;9.174;2023-12-22T13:12:22;0.88;;;0.40;;
48743;SDS011;34538;48.836;9.174;2023-12-22T13:14:50;0.43;;;0.22;;
48743;SDS011;34538;48.836;9.174;2023-12-22T13:17:17;0.98;;;0.30;;
48743;SDS011;34538;48.836;9.174;2023-12-22T13:19:44;0.70;;;0.30;;
48743;SDS011;34538;48.836;9.174;2023-12-22T13:22:12;2.35;;;0.30;;
48743;SDS011;34538;48.836;9.174;2023-12-22T13:24:39;0.20;;;0.10;;
48743;SDS011;34538;48.836;9.174;2023-12-22T13:27:06;0.20;;;0.20;;
48743;SDS011;34538;48.836;9.174;2023-12-22T13:29:43;0.98;;;0.20;;
48743;SDS011;34538;48.836;9.174;2023-12-22T13:32:16;2.05;;;0.40;;
48743;SDS011;34538;48.836;9.174;2023-12-22T13:34:47;0.77;;;0.30;;
48743;SDS011;34538;48.836;9.174;2023-12-22T13:37:17;0.43;;;0.35;;
48743;SDS011;34538;48.836;9.174;2023-12-22T13:39:45;0.20;;;0.20;;
48743;SDS011;34538;48.836;9.174;2023-12-22T13:42:15;0.82;;;0.52;;
48743;SDS011;34538;48.836;9.174;2023-12-22T13:44:44;0.32;;;0.30;;
48743;SDS011;34538;48.836;9.174;2023-12-22T13:47:14;0.30;;;0.20;;
48743;SDS011;34538;48.836;9.174;2023-12-22T13:49:42;0.57;;;0.30;;
48743;SDS011;34538;48.836;9.174;2023-12-22T13:54:53;0.63;;;0.30;;
48743;SDS011;34538;48.836;9.174;2023-12-22T13:57:23;0.50;;;0.50;;
48743;SDS011;34538;48.836;9.174;2023-12-22T13:59:50;1.40;;;0.43;;
48743;SDS011;34538;48.836;9.174;2023-12-22T14:02:21;1.80;;;0.30;;
48743;SDS011;34538;48.836;9.174;2023-12-22T14:04:49;0.63;;;0.30;;
48743;SDS011;34538;48.836;9.174;2023-12-22T14:07:17;1.05;;;0.50;;
48743;SDS011;34538;48.836;9.174;2023-12-22T14:09:45;1.10;;;0.40;;
48743;SDS011;34538;48.836;9.174;2023-12-22T14:12:12;1.17;;;0.30;;
48743;SDS011;34538;48.836;9.174;2023-12-22T14:14:40;1.50;;;0.75;;
48743;SDS011;34538;48.836;9.174;2023-12-22T14:17:07;1.38;;;0.63;;
48743;SDS011;34538;48.836;9.174;2023-12-22T14:19:34;1.30;;;0.55;;
48743;SDS011;34538;48.836;9.174;2023-12-22T14:22:01;0.30;;;0.20;;
48743;SDS011;34538;48.836;9.174;2023-12-22T14:24:28;2.20;;;0.30;;
48743;SDS011;34538;48.836;9.174;2023-12-22T14:26:56;0.50;;;0.28;;
48743;SDS011;34538;48.836;9.174;2023-12-22T14:29:24;0.65;;;0.20;;
48743;SDS011;34538;48.836;9.174;2023-12-22T14:31:51;0.93;;;0.47;;
48743;SDS011;34538;48.836;9.174;2023-12-22T14:34:18;0.55;;;0.30;;
48743;SDS011;34538;48.836;9.174;2023-12-22T14:36:45;0.93;;;0.30;;
48743;SDS011;34538;48.836;9.174;2023-12-22T14:39:12;0.20;;;0.20;;
48743;SDS011;34538;48.836;9.174;2023-12-22T14:41:39;0.47;;;0.30;;
48743;SDS011;34538;48.836;9.174;2023-12-22T14:44:08;0.20;;;0.10;;
48743;SDS011;34538;48.836;9.174;2023-12-22T14:46:38;0.73;;;0.30;;
48743;SDS011;34538;48.836;9.174;2023-12-22T14:49:06;0.30;;;0.30;;
48743;SDS011;34538;48.836;9.174;2023-12-22T14:51:36;1.08;;;0.30;;
48743;SDS011;34538;48.836;9.174;2023-12-22T14:54:03;1.55;;;0.38;;
48743;SDS011;34538;48.836;9.174;2023-12-22T14:56:31;0.38;;;0.30;;
48743;SDS011;34538;48.836;9.174;2023-12-22T14:58:58;1.45;;;0.60;;